JST9 YSSY-YMML
Flight info
| Callsign | JST9 |
|---|---|
| Flight time | 0h 57m |
| Altitude | 38000 |
| Route | GROOK1/16R WOL H65 LEECE Q29 ML DCT |
| Aircraft | A20N/M-SDE2E3FGHIRWXY/LB1 |
Departure
| Time | 2026-04-24 09:20 |
|---|---|
| Airport | Sydney Kingsford Smith International Airport (YSSY) |
Arrival
| Time | 2026-04-24 10:18 |
|---|---|
| Airport | Melbourne Airport (YMML) |
| Time | Latitude | Longitude | Altitude | Speed | Heading |
|---|---|---|---|---|---|
| 2026-04-24 08:46 | -33.93642 | 151.18003 | 34 ft | 0 kts | 280° |
| 2026-04-24 09:07 | -33.93644 | 151.18012 | 34 ft | 3 kts | 280° |
| 2026-04-24 09:07 | -33.93646 | 151.18034 | 32 ft | 3 kts | 250° |
| 2026-04-24 09:07 | -33.93635 | 151.18048 | 31 ft | 0 kts | 188° |
| 2026-04-24 09:12 | -33.93637 | 151.18048 | 31 ft | 0 kts | 187° |
| 2026-04-24 09:13 | -33.93675 | 151.18055 | 34 ft | 1 kts | 167° |
| 2026-04-24 09:13 | -33.93737 | 151.18060 | 34 ft | 6 kts | 204° |
| 2026-04-24 09:13 | -33.93760 | 151.18020 | 34 ft | 6 kts | 247° |
| 2026-04-24 09:13 | -33.93766 | 151.17994 | 34 ft | 7 kts | 252° |
| 2026-04-24 09:14 | -33.93789 | 151.17905 | 31 ft | 16 kts | 253° |
| 2026-04-24 09:14 | -33.93810 | 151.17823 | 26 ft | 0 kts | 253° |
| 2026-04-24 09:14 | -33.93811 | 151.17822 | 26 ft | 0 kts | 249° |
| 2026-04-24 09:14 | -33.93822 | 151.17805 | 27 ft | 5 kts | 231° |
| 2026-04-24 09:15 | -33.93840 | 151.17762 | 26 ft | 6 kts | 257° |
| 2026-04-24 09:15 | -33.93831 | 151.17720 | 24 ft | 3 kts | 319° |
| 2026-04-24 09:15 | -33.93818 | 151.17711 | 23 ft | 1 kts | 330° |
| 2026-04-24 09:15 | -33.93809 | 151.17694 | 25 ft | 7 kts | 304° |
| 2026-04-24 09:16 | -33.93798 | 151.17647 | 22 ft | 5 kts | 264° |
| 2026-04-24 09:16 | -33.93788 | 151.17599 | 23 ft | 6 kts | 303° |
| 2026-04-24 09:16 | -33.93748 | 151.17572 | 21 ft | 9 kts | 344° |
| 2026-04-24 09:16 | -33.93592 | 151.17528 | 20 ft | 22 kts | 348° |
| 2026-04-24 09:17 | -33.93480 | 151.17503 | 22 ft | 11 kts | 352° |
| 2026-04-24 09:17 | -33.93411 | 151.17504 | 24 ft | 9 kts | 2° |
| 2026-04-24 09:17 | -33.93350 | 151.17497 | 26 ft | 9 kts | 354° |
| 2026-04-24 09:17 | -33.93284 | 151.17480 | 24 ft | 11 kts | 347° |
| 2026-04-24 09:18 | -33.93207 | 151.17459 | 27 ft | 12 kts | 347° |
| 2026-04-24 09:18 | -33.93126 | 151.17439 | 27 ft | 13 kts | 348° |
| 2026-04-24 09:18 | -33.93034 | 151.17414 | 27 ft | 14 kts | 344° |
| 2026-04-24 09:18 | -33.92972 | 151.17347 | 24 ft | 13 kts | 293° |
| 2026-04-24 09:19 | -33.92969 | 151.17230 | 23 ft | 15 kts | 244° |
| 2026-04-24 09:19 | -33.93048 | 151.17187 | 23 ft | 13 kts | 169° |
| 2026-04-24 09:19 | -33.93178 | 151.17218 | 27 ft | 45 kts | 168° |
| 2026-04-24 09:19 | -33.93763 | 151.17371 | 19 ft | 125 kts | 168° |
| 2026-04-24 09:20 | -33.94809 | 151.17647 | 166 ft | 171 kts | 167° |
| 2026-04-24 09:20 | -33.95952 | 151.18037 | 938 ft | 169 kts | 165° |
| 2026-04-24 09:20 | -33.97093 | 151.18297 | 1825 ft | 166 kts | 175° |
| 2026-04-24 09:20 | -33.98323 | 151.18231 | 2499 ft | 194 kts | 188° |
| 2026-04-24 09:21 | -33.99765 | 151.17979 | 3043 ft | 228 kts | 188° |
| 2026-04-24 09:21 | -34.01438 | 151.17731 | 3810 ft | 252 kts | 186° |
| 2026-04-24 09:21 | -34.03217 | 151.17756 | 4936 ft | 260 kts | 170° |
| 2026-04-24 09:21 | -34.04998 | 151.18245 | 6128 ft | 266 kts | 166° |
| 2026-04-24 09:22 | -34.06810 | 151.18843 | 7285 ft | 271 kts | 165° |
| 2026-04-24 09:22 | -34.08647 | 151.19467 | 8395 ft | 276 kts | 165° |
| 2026-04-24 09:22 | -34.10517 | 151.20100 | 9498 ft | 281 kts | 165° |
| 2026-04-24 09:22 | -34.12450 | 151.20750 | 10361 ft | 297 kts | 165° |
| 2026-04-24 09:23 | -34.14488 | 151.21433 | 11225 ft | 310 kts | 165° |
| 2026-04-24 09:23 | -34.16596 | 151.22099 | 12244 ft | 317 kts | 169° |
| 2026-04-24 09:23 | -34.18808 | 151.22252 | 13294 ft | 322 kts | 187° |
| 2026-04-24 09:23 | -34.20950 | 151.21451 | 14320 ft | 326 kts | 209° |
| 2026-04-24 09:24 | -34.22734 | 151.19743 | 15337 ft | 331 kts | 226° |
| 2026-04-24 09:24 | -34.24261 | 151.17687 | 16280 ft | 336 kts | 230° |
| 2026-04-24 09:24 | -34.25783 | 151.15513 | 17204 ft | 341 kts | 230° |
| 2026-04-24 09:24 | -34.27324 | 151.13301 | 18094 ft | 346 kts | 230° |
| 2026-04-24 09:25 | -34.28890 | 151.11066 | 18956 ft | 351 kts | 230° |
| 2026-04-24 09:25 | -34.30484 | 151.08803 | 19805 ft | 356 kts | 230° |
| 2026-04-24 09:25 | -34.32101 | 151.06514 | 20630 ft | 360 kts | 230° |
| 2026-04-24 09:25 | -34.33743 | 151.04192 | 21418 ft | 365 kts | 230° |
| 2026-04-24 09:26 | -34.35405 | 151.01844 | 22186 ft | 369 kts | 230° |
| 2026-04-24 09:26 | -34.37127 | 150.99511 | 22904 ft | 374 kts | 225° |
| 2026-04-24 09:26 | -34.39028 | 150.97319 | 23522 ft | 381 kts | 223° |
| 2026-04-24 09:26 | -34.41015 | 150.95154 | 24138 ft | 387 kts | 222° |
| 2026-04-24 09:27 | -34.43034 | 150.92974 | 24763 ft | 391 kts | 222° |
| 2026-04-24 09:27 | -34.45077 | 150.90768 | 25364 ft | 395 kts | 222° |
| 2026-04-24 09:27 | -34.47111 | 150.88566 | 25958 ft | 399 kts | 222° |
| 2026-04-24 09:27 | -34.49189 | 150.86313 | 26528 ft | 403 kts | 222° |
| 2026-04-24 09:28 | -34.51284 | 150.84038 | 27075 ft | 406 kts | 222° |
| 2026-04-24 09:28 | -34.53398 | 150.81742 | 27608 ft | 410 kts | 222° |
| 2026-04-24 09:28 | -34.55470 | 150.79347 | 28107 ft | 413 kts | 227° |
| 2026-04-24 09:28 | -34.57330 | 150.76668 | 28593 ft | 416 kts | 232° |
| 2026-04-24 09:29 | -34.58507 | 150.74828 | 28905 ft | 418 kts | 233° |
| 2026-04-24 09:29 | -34.60832 | 150.71001 | 29511 ft | 423 kts | 234° |
| 2026-04-24 09:29 | -34.61971 | 150.69080 | 29784 ft | 425 kts | 234° |
| 2026-04-24 09:29 | -34.64292 | 150.65144 | 30311 ft | 431 kts | 234° |
| 2026-04-24 09:30 | -34.65455 | 150.63178 | 30584 ft | 433 kts | 234° |
| 2026-04-24 09:30 | -34.67816 | 150.59207 | 31267 ft | 433 kts | 234° |
| 2026-04-24 09:30 | -34.68986 | 150.57247 | 31638 ft | 432 kts | 234° |
| 2026-04-24 09:30 | -34.70756 | 150.54289 | 31947 ft | 432 kts | 234° |
| 2026-04-24 09:31 | -34.74159 | 150.48613 | 32001 ft | 429 kts | 234° |
| 2026-04-24 09:31 | -34.83916 | 150.32296 | 32000 ft | 430 kts | 234° |
| 2026-04-24 09:32 | -34.97981 | 150.08631 | 32001 ft | 433 kts | 234° |
| 2026-04-24 09:32 | -35.12036 | 149.84826 | 32000 ft | 432 kts | 234° |
| 2026-04-24 09:33 | -35.26046 | 149.60940 | 32000 ft | 433 kts | 234° |
| 2026-04-24 09:33 | -35.40058 | 149.36887 | 32000 ft | 433 kts | 234° |
| 2026-04-24 09:34 | -35.53937 | 149.12897 | 32001 ft | 434 kts | 235° |
| 2026-04-24 09:34 | -35.69324 | 148.86110 | 32006 ft | 436 kts | 235° |
| 2026-04-24 09:35 | -35.77061 | 148.72565 | 32002 ft | 437 kts | 235° |
| 2026-04-24 09:35 | -35.80548 | 148.66438 | 32000 ft | 436 kts | 235° |
| 2026-04-24 09:36 | -35.84027 | 148.60315 | 32000 ft | 436 kts | 235° |
| 2026-04-24 09:36 | -35.87512 | 148.54173 | 32000 ft | 437 kts | 235° |
| 2026-04-24 09:37 | -35.90988 | 148.48021 | 32000 ft | 437 kts | 235° |
| 2026-04-24 09:37 | -35.94438 | 148.41892 | 32000 ft | 437 kts | 235° |
| 2026-04-24 09:38 | -35.97899 | 148.35733 | 32000 ft | 436 kts | 235° |
| 2026-04-24 09:38 | -36.01350 | 148.29582 | 32000 ft | 435 kts | 235° |
| 2026-04-24 09:39 | -36.04795 | 148.23431 | 32001 ft | 436 kts | 235° |
| 2026-04-24 09:39 | -36.08242 | 148.17269 | 32001 ft | 435 kts | 235° |
| 2026-04-24 09:40 | -36.11668 | 148.11132 | 32000 ft | 432 kts | 235° |
| 2026-04-24 09:40 | -36.15082 | 148.05024 | 32000 ft | 430 kts | 235° |
| 2026-04-24 09:41 | -36.18484 | 147.98936 | 31999 ft | 430 kts | 235° |
| 2026-04-24 09:41 | -36.21891 | 147.92828 | 32000 ft | 430 kts | 236° |
| 2026-04-24 09:42 | -36.25283 | 147.86735 | 32000 ft | 430 kts | 236° |
| 2026-04-24 09:42 | -36.28681 | 147.80622 | 32000 ft | 430 kts | 236° |
| 2026-04-24 09:43 | -36.32069 | 147.74514 | 31999 ft | 431 kts | 236° |
| 2026-04-24 09:43 | -36.35470 | 147.68363 | 32000 ft | 432 kts | 236° |
| 2026-04-24 09:44 | -36.38842 | 147.62246 | 31999 ft | 432 kts | 236° |
| 2026-04-24 09:44 | -36.42235 | 147.56079 | 32000 ft | 432 kts | 236° |
| 2026-04-24 09:45 | -36.45614 | 147.49927 | 32001 ft | 431 kts | 236° |
| 2026-04-24 09:45 | -36.48987 | 147.43778 | 31969 ft | 428 kts | 236° |
| 2026-04-24 09:46 | -36.50648 | 147.40744 | 31731 ft | 420 kts | 236° |
| 2026-04-24 09:46 | -36.52283 | 147.37756 | 31478 ft | 416 kts | 236° |
| 2026-04-24 09:46 | -36.53908 | 147.34784 | 31227 ft | 413 kts | 236° |
| 2026-04-24 09:46 | -36.55521 | 147.31830 | 30977 ft | 413 kts | 236° |
| 2026-04-24 09:47 | -36.57134 | 147.28875 | 30727 ft | 412 kts | 236° |
| 2026-04-24 09:47 | -36.58721 | 147.25964 | 30481 ft | 411 kts | 236° |
| 2026-04-24 09:47 | -36.60348 | 147.22981 | 30227 ft | 410 kts | 236° |
| 2026-04-24 09:47 | -36.61946 | 147.20047 | 29976 ft | 409 kts | 236° |
| 2026-04-24 09:48 | -36.63534 | 147.17127 | 29724 ft | 407 kts | 236° |
| 2026-04-24 09:48 | -36.65097 | 147.14250 | 29484 ft | 405 kts | 236° |
| 2026-04-24 09:48 | -36.66668 | 147.11356 | 29230 ft | 401 kts | 236° |
| 2026-04-24 09:48 | -36.68224 | 147.08487 | 28987 ft | 400 kts | 236° |
| 2026-04-24 09:49 | -36.69781 | 147.05612 | 28729 ft | 400 kts | 236° |
| 2026-04-24 09:49 | -36.71337 | 147.02739 | 28473 ft | 398 kts | 236° |
| 2026-04-24 09:49 | -36.72884 | 146.99878 | 28229 ft | 396 kts | 236° |
| 2026-04-24 09:49 | -36.74415 | 146.97044 | 27979 ft | 393 kts | 236° |
| 2026-04-24 09:50 | -36.75940 | 146.94222 | 27723 ft | 392 kts | 236° |
| 2026-04-24 09:50 | -36.77467 | 146.91392 | 27472 ft | 391 kts | 236° |
| 2026-04-24 09:50 | -36.78980 | 146.88587 | 27231 ft | 389 kts | 236° |
| 2026-04-24 09:50 | -36.80491 | 146.85783 | 26977 ft | 388 kts | 236° |
| 2026-04-24 09:51 | -36.81990 | 146.82997 | 26724 ft | 386 kts | 236° |
| 2026-04-24 09:51 | -36.83488 | 146.80212 | 26474 ft | 386 kts | 236° |
| 2026-04-24 09:51 | -36.84982 | 146.77432 | 26226 ft | 385 kts | 236° |
| 2026-04-24 09:51 | -36.86471 | 146.74660 | 25976 ft | 383 kts | 236° |
| 2026-04-24 09:52 | -36.87947 | 146.71909 | 25726 ft | 381 kts | 236° |
| 2026-04-24 09:52 | -36.89418 | 146.69166 | 25476 ft | 379 kts | 236° |
| 2026-04-24 09:52 | -36.90880 | 146.66437 | 25226 ft | 377 kts | 236° |
| 2026-04-24 09:52 | -36.92337 | 146.63714 | 24973 ft | 376 kts | 236° |
| 2026-04-24 09:53 | -36.93789 | 146.61000 | 24725 ft | 375 kts | 236° |
| 2026-04-24 09:53 | -36.95235 | 146.58294 | 24474 ft | 373 kts | 236° |
| 2026-04-24 09:53 | -36.96673 | 146.55600 | 24219 ft | 371 kts | 236° |
| 2026-04-24 09:53 | -36.98105 | 146.52917 | 23974 ft | 370 kts | 236° |
| 2026-04-24 09:54 | -36.99511 | 146.50281 | 23729 ft | 368 kts | 236° |
| 2026-04-24 09:54 | -37.00932 | 146.47613 | 23476 ft | 368 kts | 236° |
| 2026-04-24 09:54 | -37.02350 | 146.44948 | 23225 ft | 366 kts | 236° |
| 2026-04-24 09:54 | -37.03757 | 146.42303 | 22975 ft | 365 kts | 236° |
| 2026-04-24 09:55 | -37.05166 | 146.39654 | 22725 ft | 365 kts | 236° |
| 2026-04-24 09:55 | -37.06580 | 146.37030 | 22467 ft | 363 kts | 236° |
| 2026-04-24 09:55 | -37.07997 | 146.34431 | 22217 ft | 361 kts | 236° |
| 2026-04-24 09:55 | -37.09410 | 146.31840 | 21977 ft | 359 kts | 236° |
| 2026-04-24 09:56 | -37.10811 | 146.29264 | 21725 ft | 357 kts | 236° |
| 2026-04-24 09:56 | -37.12207 | 146.26695 | 21473 ft | 355 kts | 236° |
| 2026-04-24 09:56 | -37.13589 | 146.24146 | 21223 ft | 354 kts | 236° |
| 2026-04-24 09:56 | -37.14970 | 146.21595 | 20973 ft | 352 kts | 236° |
| 2026-04-24 09:57 | -37.16344 | 146.19056 | 20722 ft | 350 kts | 236° |
| 2026-04-24 09:57 | -37.17690 | 146.16568 | 20475 ft | 349 kts | 236° |
| 2026-04-24 09:57 | -37.19051 | 146.14048 | 20225 ft | 348 kts | 236° |
| 2026-04-24 09:57 | -37.20404 | 146.11542 | 19975 ft | 347 kts | 236° |
| 2026-04-24 09:58 | -37.21755 | 146.09038 | 19724 ft | 345 kts | 236° |
| 2026-04-24 09:58 | -37.23089 | 146.06563 | 19316 ft | 342 kts | 236° |
| 2026-04-24 09:58 | -37.24421 | 146.04090 | 18845 ft | 340 kts | 236° |
| 2026-04-24 09:58 | -37.25743 | 146.01634 | 18366 ft | 337 kts | 236° |
| 2026-04-24 09:59 | -37.27049 | 145.99205 | 17895 ft | 335 kts | 236° |
| 2026-04-24 09:59 | -37.28347 | 145.96789 | 17435 ft | 332 kts | 236° |
| 2026-04-24 09:59 | -37.29635 | 145.94392 | 16948 ft | 330 kts | 236° |
| 2026-04-24 09:59 | -37.30912 | 145.92013 | 16477 ft | 327 kts | 236° |
| 2026-04-24 10:00 | -37.32183 | 145.89642 | 15984 ft | 326 kts | 236° |
| 2026-04-24 10:00 | -37.33445 | 145.87287 | 15497 ft | 324 kts | 236° |
| 2026-04-24 10:00 | -37.34696 | 145.84950 | 15027 ft | 321 kts | 236° |
| 2026-04-24 10:00 | -37.35926 | 145.82652 | 14555 ft | 319 kts | 236° |
| 2026-04-24 10:01 | -37.37161 | 145.80343 | 14061 ft | 318 kts | 236° |
| 2026-04-24 10:01 | -37.38391 | 145.78042 | 13593 ft | 315 kts | 236° |
| 2026-04-24 10:01 | -37.39610 | 145.75758 | 13139 ft | 312 kts | 236° |
| 2026-04-24 10:01 | -37.40816 | 145.73500 | 12681 ft | 310 kts | 236° |
| 2026-04-24 10:02 | -37.42010 | 145.71261 | 12222 ft | 307 kts | 236° |
| 2026-04-24 10:02 | -37.43196 | 145.69035 | 11767 ft | 305 kts | 236° |
| 2026-04-24 10:02 | -37.44371 | 145.66828 | 11304 ft | 302 kts | 236° |
| 2026-04-24 10:02 | -37.45536 | 145.64639 | 10828 ft | 301 kts | 236° |
| 2026-04-24 10:03 | -37.46698 | 145.62456 | 10358 ft | 299 kts | 236° |
| 2026-04-24 10:03 | -37.48012 | 145.60439 | 9878 ft | 297 kts | 225° |
| 2026-04-24 10:03 | -37.49525 | 145.58704 | 9513 ft | 291 kts | 221° |
| 2026-04-24 10:03 | -37.51044 | 145.57044 | 9114 ft | 287 kts | 221° |
| 2026-04-24 10:04 | -37.52393 | 145.55205 | 8666 ft | 284 kts | 233° |
| 2026-04-24 10:04 | -37.53576 | 145.53220 | 8201 ft | 283 kts | 231° |
| 2026-04-24 10:04 | -37.54806 | 145.51343 | 7768 ft | 281 kts | 230° |
| 2026-04-24 10:04 | -37.56054 | 145.49478 | 7467 ft | 274 kts | 230° |
| 2026-04-24 10:05 | -37.57258 | 145.47683 | 7299 ft | 262 kts | 230° |
| 2026-04-24 10:05 | -37.58422 | 145.45948 | 7025 ft | 256 kts | 230° |
| 2026-04-24 10:05 | -37.59552 | 145.44266 | 6598 ft | 249 kts | 230° |
| 2026-04-24 10:05 | -37.60774 | 145.42722 | 6088 ft | 246 kts | 222° |
| 2026-04-24 10:06 | -37.62054 | 145.41312 | 5585 ft | 243 kts | 221° |
| 2026-04-24 10:06 | -37.64610 | 145.38537 | 4825 ft | 242 kts | 221° |
| 2026-04-24 10:06 | -37.65880 | 145.37153 | 4437 ft | 240 kts | 223° |
| 2026-04-24 10:07 | -37.66936 | 145.35574 | 3979 ft | 238 kts | 238° |
| 2026-04-24 10:07 | -37.67730 | 145.33738 | 3801 ft | 238 kts | 244° |
| 2026-04-24 10:07 | -37.68436 | 145.31840 | 3786 ft | 239 kts | 246° |
| 2026-04-24 10:07 | -37.69101 | 145.29950 | 3781 ft | 232 kts | 246° |
| 2026-04-24 10:08 | -37.69740 | 145.28087 | 3695 ft | 230 kts | 247° |
| 2026-04-24 10:08 | -37.70370 | 145.26229 | 3568 ft | 230 kts | 247° |
| 2026-04-24 10:08 | -37.70989 | 145.24387 | 3447 ft | 230 kts | 247° |
| 2026-04-24 10:08 | -37.71613 | 145.22527 | 3322 ft | 229 kts | 247° |
| 2026-04-24 10:09 | -37.72235 | 145.20665 | 3196 ft | 229 kts | 247° |
| 2026-04-24 10:09 | -37.72846 | 145.18834 | 3075 ft | 229 kts | 247° |
| 2026-04-24 10:09 | -37.73464 | 145.16979 | 2943 ft | 228 kts | 247° |
| 2026-04-24 10:09 | -37.74081 | 145.15128 | 2825 ft | 228 kts | 247° |
| 2026-04-24 10:10 | -37.74694 | 145.13285 | 2784 ft | 228 kts | 247° |
| 2026-04-24 10:10 | -37.75307 | 145.11441 | 2782 ft | 227 kts | 247° |
| 2026-04-24 10:10 | -37.75914 | 145.09614 | 2783 ft | 227 kts | 247° |
| 2026-04-24 10:10 | -37.76535 | 145.07747 | 2784 ft | 227 kts | 247° |
| 2026-04-24 10:11 | -37.77137 | 145.05931 | 2782 ft | 227 kts | 247° |
| 2026-04-24 10:11 | -37.77750 | 145.04084 | 2782 ft | 227 kts | 247° |
| 2026-04-24 10:11 | -37.78363 | 145.02234 | 2784 ft | 227 kts | 247° |
| 2026-04-24 10:11 | -37.78955 | 145.00449 | 2780 ft | 211 kts | 247° |
| 2026-04-24 10:12 | -37.79508 | 144.98776 | 2776 ft | 208 kts | 248° |
| 2026-04-24 10:12 | -37.80066 | 144.97091 | 2782 ft | 207 kts | 248° |
| 2026-04-24 10:12 | -37.80435 | 144.95974 | 2784 ft | 206 kts | 248° |
| 2026-04-24 10:12 | -37.81176 | 144.93730 | 2782 ft | 206 kts | 248° |
| 2026-04-24 10:13 | -37.81724 | 144.92073 | 2783 ft | 206 kts | 248° |
| 2026-04-24 10:13 | -37.82091 | 144.90961 | 2782 ft | 206 kts | 248° |
| 2026-04-24 10:13 | -37.82480 | 144.89225 | 2775 ft | 206 kts | 271° |
| 2026-04-24 10:13 | -37.82017 | 144.87537 | 2783 ft | 205 kts | 306° |
| 2026-04-24 10:14 | -37.80520 | 144.86327 | 2525 ft | 190 kts | 345° |
| 2026-04-24 10:14 | -37.79235 | 144.86020 | 2253 ft | 185 kts | 351° |
| 2026-04-24 10:14 | -37.78393 | 144.85872 | 2089 ft | 182 kts | 352° |
| 2026-04-24 10:14 | -37.77148 | 144.85662 | 1854 ft | 178 kts | 352° |
| 2026-04-24 10:15 | -37.75938 | 144.85453 | 1639 ft | 168 kts | 351° |
| 2026-04-24 10:15 | -37.74842 | 144.85258 | 1401 ft | 154 kts | 351° |
| 2026-04-24 10:15 | -37.73822 | 144.85073 | 1160 ft | 141 kts | 351° |
| 2026-04-24 10:15 | -37.72884 | 144.84901 | 968 ft | 134 kts | 351° |
| 2026-04-24 10:16 | -37.71938 | 144.84725 | 868 ft | 140 kts | 351° |
| 2026-04-24 10:16 | -37.70968 | 144.84544 | 696 ft | 141 kts | 351° |
| 2026-04-24 10:16 | -37.70007 | 144.84357 | 560 ft | 141 kts | 351° |
| 2026-04-24 10:16 | -37.69031 | 144.84176 | 426 ft | 141 kts | 351° |
| 2026-04-24 10:17 | -37.68064 | 144.83999 | 355 ft | 135 kts | 351° |
| 2026-04-24 10:17 | -37.67282 | 144.83855 | 377 ft | 95 kts | 352° |
| 2026-04-24 10:17 | -37.66726 | 144.83752 | 392 ft | 68 kts | 351° |
| 2026-04-24 10:17 | -37.66274 | 144.83663 | 398 ft | 64 kts | 351° |
| 2026-04-24 10:18 | -37.65847 | 144.83594 | 412 ft | 55 kts | 351° |
| 2026-04-24 10:18 | -37.65591 | 144.83648 | 417 ft | 18 kts | 60° |
| 2026-04-24 10:18 | -37.65588 | 144.83658 | 422 ft | 0 kts | 74° |
| 2026-04-24 10:19 | -37.65581 | 144.83700 | 411 ft | 14 kts | 78° |
| 2026-04-24 10:20 | -37.65573 | 144.83870 | 414 ft | 24 kts | 99° |
| 2026-04-24 10:20 | -37.65727 | 144.83997 | 404 ft | 31 kts | 172° |
| 2026-04-24 10:20 | -37.65920 | 144.84029 | 391 ft | 31 kts | 172° |
| 2026-04-24 10:20 | -37.66152 | 144.84077 | 380 ft | 35 kts | 171° |
| 2026-04-24 10:21 | -37.66321 | 144.84102 | 375 ft | 20 kts | 174° |
| 2026-04-24 10:21 | -37.66406 | 144.84120 | 376 ft | 4 kts | 168° |
| 2026-04-24 10:21 | -37.66435 | 144.84127 | 376 ft | 4 kts | 169° |
| 2026-04-24 10:21 | -37.66464 | 144.84134 | 377 ft | 4 kts | 170° |
| 2026-04-24 10:22 | -37.66492 | 144.84139 | 377 ft | 4 kts | 174° |
| 2026-04-24 10:22 | -37.66518 | 144.84142 | 378 ft | 4 kts | 174° |
| 2026-04-24 10:22 | -37.66544 | 144.84146 | 378 ft | 4 kts | 174° |
| 2026-04-24 10:22 | -37.66574 | 144.84151 | 379 ft | 9 kts | 172° |
| 2026-04-24 10:23 | -37.66675 | 144.84169 | 379 ft | 20 kts | 172° |
| 2026-04-24 10:23 | -37.66847 | 144.84201 | 378 ft | 27 kts | 171° |
| 2026-04-24 10:23 | -37.67040 | 144.84240 | 374 ft | 29 kts | 172° |
| 2026-04-24 10:23 | -37.67213 | 144.84269 | 370 ft | 26 kts | 172° |
| 2026-04-24 10:24 | -37.67400 | 144.84307 | 365 ft | 28 kts | 169° |
| 2026-04-24 10:24 | -37.67573 | 144.84352 | 368 ft | 1 kts | 137° |
| 2026-04-24 10:24 | -37.67575 | 144.84356 | 368 ft | 0 kts | 123° |
| 2026-04-24 10:24 | -37.67577 | 144.84386 | 367 ft | 12 kts | 96° |
| 2026-04-24 10:25 | -37.67492 | 144.84400 | 368 ft | 1 kts | 338° |